createdAt,value
2023-07-28T00:03:05.011Z,16.18
2023-07-28T00:08:09.209Z,16.18
2023-07-28T00:13:13.437Z,16.17
2023-07-28T00:18:19.926Z,16.09
2023-07-28T00:23:23.896Z,15.98
2023-07-28T00:28:28.312Z,15.79
2023-07-28T00:33:32.582Z,15.73
2023-07-28T00:38:36.768Z,15.81
2023-07-28T00:43:41.053Z,15.87
2023-07-28T00:48:46.469Z,15.81
2023-07-28T00:53:50.607Z,15.61
2023-07-28T00:58:54.832Z,15.47
2023-07-28T01:04:00.063Z,15.50
2023-07-28T01:09:11.413Z,15.58
2023-07-28T01:14:15.541Z,15.87
2023-07-28T01:19:23.998Z,16.13
2023-07-28T01:24:50.872Z,16.37
2023-07-28T01:29:55.194Z,16.53
2023-07-28T01:34:59.262Z,16.64
2023-07-28T01:40:04.120Z,16.69
2023-07-28T01:45:09.401Z,16.76
2023-07-28T01:50:13.557Z,16.84
2023-07-28T01:55:17.614Z,16.87
2023-07-28T02:00:21.822Z,16.92
2023-07-28T02:05:26.189Z,16.93
2023-07-28T02:10:32.638Z,16.90
2023-07-28T02:15:38.434Z,16.92
2023-07-28T02:20:44.824Z,16.58
2023-07-28T02:25:49.157Z,15.66
2023-07-28T02:30:53.230Z,15.14
2023-07-28T02:35:58.539Z,15.82
2023-07-28T02:41:04.689Z,16.40
2023-07-28T02:46:08.625Z,16.54
2023-07-28T02:51:12.588Z,16.63
2023-07-28T02:56:16.708Z,16.79
2023-07-28T03:01:22.550Z,16.92
2023-07-28T03:06:26.621Z,17.02
2023-07-28T03:11:30.730Z,17.08
2023-07-28T03:16:35.237Z,17.07
2023-07-28T03:21:40.333Z,17.11
2023-07-28T03:26:44.592Z,17.19
2023-07-28T03:31:48.754Z,17.27
2023-07-28T03:36:53.090Z,17.49
2023-07-28T03:41:57.515Z,17.84
2023-07-28T03:47:01.890Z,17.53
2023-07-28T03:52:06.792Z,16.60
2023-07-28T03:57:11.789Z,15.99
2023-07-28T04:02:15.770Z,15.63
2023-07-28T04:07:19.821Z,15.72
2023-07-28T04:12:24.172Z,17.13
2023-07-28T04:17:29.527Z,17.67
2023-07-28T04:22:33.436Z,18.03
2023-07-28T04:27:37.486Z,17.82
2023-07-28T04:32:41.785Z,16.69
2023-07-28T04:37:46.319Z,17.62
2023-07-28T04:42:54.374Z,18.06
2023-07-28T04:47:58.575Z,16.92
2023-07-28T04:53:03.277Z,16.34
2023-07-28T04:58:08.419Z,17.54
2023-07-28T05:03:13.765Z,17.96
2023-07-28T05:08:17.781Z,16.98
2023-07-28T05:13:21.948Z,16.63
2023-07-28T05:18:25.888Z,17.54
2023-07-28T05:23:29.942Z,18.83
2023-07-28T05:28:37.328Z,18.02
2023-07-28T05:33:41.453Z,17.18
2023-07-28T05:38:45.600Z,17.69
2023-07-28T05:43:51.675Z,19.56
2023-07-28T05:48:57.686Z,20.01
2023-07-28T05:54:02.079Z,18.90
2023-07-28T05:59:05.943Z,18.31
2023-07-28T06:04:10.056Z,18.10
2023-07-28T06:09:14.364Z,18.16
2023-07-28T06:14:18.509Z,18.78
2023-07-28T06:19:25.537Z,19.07
2023-07-28T06:24:29.657Z,19.02
2023-07-28T06:29:33.789Z,19.01
2023-07-28T06:34:38.532Z,19.27
2023-07-28T06:39:42.412Z,19.22
2023-07-28T06:44:46.360Z,18.76
2023-07-28T06:49:50.417Z,18.56
2023-07-28T06:54:56.242Z,18.42
2023-07-28T07:00:01.751Z,18.39
2023-07-28T07:05:06.600Z,18.97
2023-07-28T07:10:11.149Z,18.99
2023-07-28T07:15:15.300Z,18.48
2023-07-28T07:20:19.301Z,18.19
2023-07-28T07:25:23.877Z,18.53
2023-07-28T07:30:28.098Z,18.96
2023-07-28T07:35:32.329Z,18.98
2023-07-28T07:40:38.685Z,18.82
2023-07-28T07:45:42.879Z,18.83
2023-07-28T07:50:47.133Z,18.79
2023-07-28T07:55:51.550Z,18.82
2023-07-28T08:00:56.777Z,18.79
2023-07-28T08:06:00.949Z,18.49
2023-07-28T08:11:05.893Z,18.27
2023-07-28T08:16:10.621Z,18.11
2023-07-28T08:21:14.762Z,17.94
2023-07-28T08:26:18.783Z,17.88
2023-07-28T08:31:22.846Z,17.82
2023-07-28T08:36:26.968Z,17.78
2023-07-28T08:41:31.090Z,17.78
2023-07-28T08:46:37.021Z,17.74
2023-07-28T08:51:44.117Z,17.72
2023-07-28T08:56:48.311Z,17.58
2023-07-28T09:01:54.204Z,17.42
2023-07-28T09:07:00.468Z,17.29
2023-07-28T09:12:05.582Z,17.14
2023-07-28T09:17:15.081Z,17.05
2023-07-28T09:22:20.783Z,17.04
2023-07-28T09:27:30.582Z,17.12
2023-07-28T09:32:37.040Z,17.18
2023-07-28T09:37:44.942Z,17.17
2023-07-28T09:42:54.434Z,17.18
2023-07-28T09:48:06.564Z,17.16
2023-07-28T09:53:14.778Z,17.19
2023-07-28T09:58:23.476Z,17.15
2023-07-28T10:03:28.291Z,17.20
2023-07-28T10:08:34.416Z,17.21
2023-07-28T10:13:44.394Z,17.20
2023-07-28T10:18:58.334Z,17.21
2023-07-28T10:24:02.600Z,17.33
2023-07-28T10:29:16.662Z,17.40
2023-07-28T10:34:23.339Z,17.56
2023-07-28T10:39:27.903Z,17.66
2023-07-28T10:44:34.306Z,17.71
2023-07-28T10:49:38.516Z,17.87
2023-07-28T10:54:44.170Z,18.05
2023-07-28T10:59:48.626Z,18.24
2023-07-28T11:04:52.796Z,18.24
2023-07-28T11:09:56.906Z,18.29
2023-07-28T11:15:01.446Z,18.43
2023-07-28T11:20:19.892Z,18.62
2023-07-28T11:25:27.106Z,18.62
2023-07-28T11:30:32.815Z,18.58
2023-07-28T11:35:37.531Z,18.74
2023-07-28T11:40:43.238Z,18.92
2023-07-28T11:45:47.634Z,18.94
2023-07-28T11:50:55.140Z,18.77
2023-07-28T11:55:59.495Z,18.72
2023-07-28T12:01:10.830Z,18.84
2023-07-28T12:21:56.617Z,19.32
2023-07-28T12:27:00.748Z,19.43
2023-07-28T12:32:05.229Z,19.43
2023-07-28T12:37:11.830Z,19.70
2023-07-28T12:42:21.599Z,19.98
2023-07-28T12:47:43.277Z,20.20
2023-07-28T12:57:56.173Z,20.52
2023-07-28T13:03:00.739Z,20.62
2023-07-28T13:13:14.460Z,21.81
2023-07-28T13:18:19.159Z,23.14
2023-07-28T13:23:23.416Z,23.50
2023-07-28T13:28:27.540Z,23.55
2023-07-28T13:33:32.931Z,23.73
2023-07-28T13:38:37.643Z,23.89
2023-07-28T13:43:42.280Z,24.24
2023-07-28T13:48:53.734Z,24.94
2023-07-28T13:59:06.870Z,24.84
2023-07-28T14:09:58.524Z,25.77
2023-07-28T14:15:02.918Z,25.96
2023-07-28T14:20:08.430Z,25.08
2023-07-28T14:25:12.429Z,24.40
2023-07-28T14:30:16.511Z,24.84
2023-07-28T14:35:21.060Z,25.62
2023-07-28T14:40:25.236Z,24.43
2023-07-28T14:45:29.646Z,23.63
2023-07-28T14:50:34.415Z,24.04
2023-07-28T14:55:38.534Z,25.08
2023-07-28T15:00:45.291Z,24.15
2023-07-28T15:05:54.424Z,23.72
2023-07-28T15:11:04.281Z,24.99
2023-07-28T15:16:18.760Z,25.65
2023-07-28T15:21:29.511Z,24.55
2023-07-28T15:26:40.280Z,23.98
2023-07-28T15:31:51.512Z,23.51
2023-07-28T15:37:09.892Z,24.46
2023-07-28T15:42:23.820Z,24.70
2023-07-28T15:47:35.474Z,23.55
2023-07-28T15:52:48.487Z,23.44
2023-07-28T15:57:59.571Z,24.84
2023-07-28T16:03:07.810Z,23.92
2023-07-28T16:08:23.137Z,22.98
2023-07-28T16:13:43.858Z,23.25
2023-07-28T16:19:12.021Z,24.67
2023-07-28T16:24:56.082Z,26.25
2023-07-28T16:30:23.803Z,26.82
2023-07-28T16:41:27.105Z,24.98
2023-07-28T16:46:47.262Z,24.18
2023-07-28T16:52:06.176Z,23.54
2023-07-28T16:57:22.454Z,23.06
2023-07-28T17:02:52.513Z,23.86
2023-07-28T17:08:09.278Z,26.28
2023-07-28T17:13:18.753Z,25.39
2023-07-28T17:18:48.257Z,24.10
2023-07-28T17:29:31.419Z,22.44
2023-07-28T17:34:42.014Z,22.40
2023-07-28T17:39:50.744Z,24.02
2023-07-28T17:44:54.768Z,23.91
2023-07-28T17:49:59.331Z,22.65
2023-07-28T17:55:04.075Z,21.85
2023-07-28T18:00:09.757Z,22.64
2023-07-28T18:05:13.785Z,24.03
2023-07-28T18:10:18.616Z,23.69
2023-07-28T18:21:10.225Z,21.25
2023-07-28T18:26:14.865Z,21.61
2023-07-28T18:31:19.344Z,23.48
2023-07-28T18:36:23.638Z,24.21
2023-07-28T18:41:27.749Z,23.75
2023-07-28T18:46:32.247Z,22.20
2023-07-28T18:51:37.236Z,21.28
2023-07-28T18:56:43.581Z,22.43
2023-07-28T19:01:47.498Z,23.66
2023-07-28T19:06:52.427Z,24.29
2023-07-28T19:11:56.461Z,23.78
2023-07-28T19:17:00.474Z,22.05
2023-07-28T19:22:08.274Z,20.90
2023-07-28T19:27:17.608Z,20.99
2023-07-28T19:32:22.749Z,22.64
2023-07-28T19:37:42.996Z,23.24
2023-07-28T19:42:49.219Z,23.57
2023-07-28T19:47:53.763Z,22.53
2023-07-28T19:52:59.728Z,20.92
2023-07-28T19:58:04.801Z,20.73
2023-07-28T20:03:09.106Z,22.43
2023-07-28T20:08:13.581Z,23.27
2023-07-28T20:13:17.239Z,22.21
2023-07-28T20:18:22.941Z,20.62
2023-07-28T20:23:30.192Z,20.56
2023-07-28T20:28:52.670Z,22.07
2023-07-28T20:33:58.245Z,22.59
2023-07-28T20:39:03.034Z,21.45
2023-07-28T20:44:07.610Z,19.88
2023-07-28T20:49:12.931Z,19.73
2023-07-28T20:54:26.518Z,21.35
2023-07-28T20:59:45.408Z,21.69
2023-07-28T21:05:03.507Z,19.91
2023-07-28T21:10:34.095Z,18.58
2023-07-28T21:15:43.493Z,18.81
2023-07-28T21:20:48.288Z,20.52
2023-07-28T21:25:52.564Z,21.51
2023-07-28T21:30:56.609Z,21.47
2023-07-28T21:36:00.725Z,19.80
2023-07-28T21:41:06.990Z,19.50
2023-07-28T21:46:10.880Z,21.21
2023-07-28T21:51:14.960Z,21.40
2023-07-28T21:56:31.536Z,19.47
2023-07-28T22:01:35.659Z,18.24
2023-07-28T22:06:42.477Z,19.90
2023-07-28T22:11:47.047Z,21.12
2023-07-28T22:16:58.366Z,21.44
2023-07-28T22:22:06.874Z,19.83
2023-07-28T22:27:12.480Z,18.41
2023-07-28T22:32:16.431Z,18.47
2023-07-28T22:37:21.202Z,20.18
2023-07-28T22:42:25.927Z,20.98
2023-07-28T22:47:31.686Z,20.32
2023-07-28T22:52:36.510Z,18.52
2023-07-28T22:57:40.746Z,18.40
2023-07-28T23:02:44.813Z,20.13
2023-07-28T23:07:48.913Z,20.87
2023-07-28T23:12:54.383Z,19.96
2023-07-28T23:17:59.963Z,18.21
2023-07-28T23:23:05.507Z,18.75
2023-07-28T23:28:09.344Z,20.19
2023-07-28T23:33:13.692Z,20.41
2023-07-28T23:38:17.930Z,18.64
2023-07-28T23:43:21.942Z,17.43
2023-07-28T23:48:29.207Z,18.73
2023-07-28T23:53:33.187Z,19.98
2023-07-28T23:58:37.222Z,20.24
